Alyeska Resort
Max's Hourly Weather Roundup
ALYESKA_MAX 7/30/2014
Click Here for Graph

        DATE  TIME   Air  Wind  Wind  Wind  BATT   Rel
                    Temp   Spd   Dir  Gust  Volt  Hum%
                      F   MPH   AVG   MPH   AVG   AVG

   7/30/2014 19:00    55     5   219    13 13.89    85
   7/30/2014 18:00    56     4   214    12 13.87    82
   7/30/2014 17:00    58     4   230    15 13.84    78
   7/30/2014 16:00    58     5   188    15 13.82    78
   7/30/2014 15:00    55     6   178    14 13.88    87
   7/30/2014 14:00    52     3   218    12 13.88    96
   7/30/2014 13:00    51     3   246     7 13.83    99
   7/30/2014 12:00    51     2           4 13.72    98
   7/30/2014 11:00    50     2   225     8 13.65    98
   7/30/2014 10:00    50     1   167     5 13.64    97
   7/30/2014 09:00    52     1   159     3 13.60    87
   7/30/2014 08:00    50     2   108     6 13.29    91
   7/30/2014 07:00    47     3    79     8 12.79   100
   7/30/2014 06:00    47     3    99     7 12.80   100
   7/30/2014 05:00    47     5    54     8 12.81   100
   7/30/2014 04:00    47     5    53     9 12.83   100
   7/30/2014 03:00    49     4    87     8 12.86   100
   7/30/2014 02:00    50     2   157     6 12.89   100
   7/30/2014 01:00    52     2   158     4 12.93    96
   7/29/2014 24:00    54     4   232    10 12.97    87
   7/29/2014 23:00    55     3   287     6 13.06    84
   7/29/2014 22:00    57     3   219     6 13.57    80
   7/29/2014 21:00    60     2   240     5 13.90    78
   7/29/2014 20:00    59     2   266     6 13.89    81


Click Here for Graph